createdAt,value
2022-10-29T00:02:27.883Z,18.30
2022-10-29T00:06:30.820Z,18.20
2022-10-29T00:10:35.326Z,18.10
2022-10-29T00:14:38.231Z,18.00
2022-10-29T00:18:41.095Z,17.90
2022-10-29T00:22:43.977Z,17.90
2022-10-29T00:26:48.249Z,17.80
2022-10-29T00:30:51.091Z,17.80
2022-10-29T00:34:53.941Z,17.80
2022-10-29T00:38:57.941Z,17.70
2022-10-29T00:43:14.327Z,17.70
2022-10-29T00:47:19.550Z,17.70
2022-10-29T00:51:22.649Z,17.70
2022-10-29T00:55:25.541Z,17.70
2022-10-29T00:59:29.822Z,17.70
2022-10-29T01:03:32.739Z,17.70
2022-10-29T01:07:35.697Z,17.60
2022-10-29T01:11:45.018Z,17.60
2022-10-29T01:15:54.615Z,17.60
2022-10-29T01:20:17.079Z,17.50
2022-10-29T01:24:40.823Z,17.50
2022-10-29T01:28:55.414Z,17.40
2022-10-29T01:33:11.294Z,17.30
2022-10-29T01:37:15.887Z,17.30
2022-10-29T01:41:23.071Z,17.20
2022-10-29T01:45:27.948Z,17.20
2022-10-29T01:49:34.248Z,17.20
2022-10-29T01:53:38.302Z,17.10
2022-10-29T01:57:41.167Z,17.10
2022-10-29T02:01:52.857Z,17.10
2022-10-29T02:06:01.654Z,17.10
2022-10-29T02:10:08.272Z,17.10
2022-10-29T02:14:16.374Z,17.10
2022-10-29T02:18:19.355Z,17.10
2022-10-29T02:22:23.560Z,17.00
2022-10-29T02:26:26.383Z,17.00
2022-10-29T02:30:29.331Z,16.90
2022-10-29T02:34:32.301Z,16.80
2022-10-29T02:38:36.526Z,16.80
2022-10-29T02:42:39.409Z,16.80
2022-10-29T02:46:42.267Z,16.70
2022-10-29T02:50:45.147Z,16.70
2022-10-29T02:54:49.414Z,16.70
2022-10-29T02:58:52.281Z,16.60
2022-10-29T03:02:55.624Z,16.60
2022-10-29T03:06:58.807Z,16.60
2022-10-29T03:11:02.987Z,16.60
2022-10-29T03:15:06.255Z,16.50
2022-10-29T03:19:09.126Z,16.50
2022-10-29T03:23:11.991Z,16.40
2022-10-29T03:27:16.248Z,16.40
2022-10-29T03:31:19.075Z,16.30
2022-10-29T03:35:22.113Z,16.20
2022-10-29T03:39:25.054Z,16.20
2022-10-29T03:43:29.247Z,16.10
2022-10-29T03:47:33.907Z,16.10
2022-10-29T03:51:36.763Z,16.00
2022-10-29T03:55:39.743Z,16.00
2022-10-29T03:59:48.472Z,15.90
2022-10-29T04:07:57.593Z,15.80
2022-10-29T04:12:01.082Z,15.80
2022-10-29T04:16:05.558Z,15.70
2022-10-29T04:20:19.095Z,15.70
2022-10-29T04:28:55.908Z,15.50
2022-10-29T04:33:00.612Z,15.40
2022-10-29T04:37:03.463Z,15.40
2022-10-29T04:41:06.549Z,15.30
2022-10-29T04:45:10.066Z,15.20
2022-10-29T04:49:14.426Z,15.20
2022-10-29T04:53:17.930Z,15.20
2022-10-29T04:57:20.799Z,15.20
2022-10-29T05:01:23.832Z,15.20
2022-10-29T05:05:28.283Z,15.20
2022-10-29T05:09:31.251Z,15.20
2022-10-29T05:13:34.138Z,15.10
2022-10-29T05:17:37.830Z,15.10
2022-10-29T05:21:42.053Z,15.10
2022-10-29T05:25:49.062Z,15.00
2022-10-29T05:29:51.934Z,15.00
2022-10-29T05:33:56.000Z,14.90
2022-10-29T05:38:00.464Z,14.90
2022-10-29T05:42:03.366Z,14.90
2022-10-29T05:46:06.368Z,14.90
2022-10-29T05:50:09.789Z,14.90
2022-10-29T05:54:14.008Z,14.80
2022-10-29T05:58:18.000Z,14.80
2022-10-29T06:02:21.215Z,14.80
2022-10-29T06:06:24.200Z,14.90
2022-10-29T06:10:30.178Z,14.90
2022-10-29T06:14:34.100Z,14.90
2022-10-29T06:18:36.945Z,14.90
2022-10-29T06:22:40.885Z,14.90
2022-10-29T06:26:45.124Z,14.90
2022-10-29T06:30:49.775Z,14.90
2022-10-29T06:34:53.414Z,14.90
2022-10-29T06:38:57.064Z,15.00
2022-10-29T06:43:01.645Z,15.00
2022-10-29T06:47:06.563Z,15.00
2022-10-29T06:51:09.442Z,15.00
2022-10-29T06:55:12.308Z,15.00
2022-10-29T06:59:16.506Z,15.00
2022-10-29T07:03:20.250Z,15.00
2022-10-29T07:11:25.857Z,14.90
2022-10-29T07:15:31.116Z,15.00
2022-10-29T07:19:34.107Z,15.00
2022-10-29T07:23:36.962Z,15.00
2022-10-29T07:27:39.842Z,15.00
2022-10-29T07:31:44.211Z,15.10
2022-10-29T07:35:47.063Z,15.10
2022-10-29T07:39:50.269Z,15.20
2022-10-29T07:43:53.135Z,15.30
2022-10-29T07:48:04.450Z,15.30
2022-10-29T07:52:07.342Z,15.40
2022-10-29T07:56:10.310Z,15.60
2022-10-29T08:00:14.895Z,15.60
2022-10-29T08:04:19.102Z,15.70
2022-10-29T08:08:21.943Z,15.80
2022-10-29T08:12:24.914Z,15.90
2022-10-29T08:16:27.747Z,16.10
2022-10-29T08:20:32.049Z,16.30
2022-10-29T08:24:34.943Z,16.50
2022-10-29T08:28:37.837Z,16.90
2022-10-29T08:32:45.930Z,17.40
2022-10-29T08:36:50.155Z,18.00
2022-10-29T08:41:03.583Z,18.60
2022-10-29T08:45:15.422Z,19.10
2022-10-29T08:49:19.500Z,19.50
2022-10-29T08:53:31.278Z,19.90
2022-10-29T09:01:40.061Z,20.70
2022-10-29T09:05:48.238Z,21.00
2022-10-29T09:09:57.168Z,21.10
2022-10-29T09:14:04.613Z,21.00
2022-10-29T09:18:16.074Z,20.90
2022-10-29T09:22:22.525Z,20.80
2022-10-29T09:26:31.013Z,20.70
2022-10-29T09:30:37.819Z,20.50
2022-10-29T09:34:42.706Z,20.40
2022-10-29T09:38:48.739Z,20.30
2022-10-29T09:42:53.357Z,20.20
2022-10-29T09:47:07.086Z,20.20
2022-10-29T09:51:16.343Z,20.10
2022-10-29T09:55:21.926Z,20.10
2022-10-29T09:59:30.032Z,20.10
2022-10-29T10:03:37.843Z,20.10
2022-10-29T10:07:40.903Z,20.20
2022-10-29T10:11:45.226Z,20.40
2022-10-29T10:15:54.075Z,20.80
2022-10-29T10:19:56.933Z,21.20
2022-10-29T10:24:00.447Z,21.60
2022-10-29T10:28:16.885Z,21.90
2022-10-29T10:32:21.304Z,22.30
2022-10-29T10:36:25.483Z,22.70
2022-10-29T10:40:29.119Z,23.30
2022-10-29T10:44:32.282Z,23.80
2022-10-29T10:52:39.355Z,24.40
2022-10-29T10:56:53.121Z,24.70
2022-10-29T11:00:58.752Z,24.90
2022-10-29T11:05:08.019Z,24.90
2022-10-29T11:09:13.721Z,24.80
2022-10-29T11:13:17.505Z,24.70
2022-10-29T11:17:26.406Z,24.70
2022-10-29T11:21:35.363Z,24.70
2022-10-29T11:25:40.907Z,24.70
2022-10-29T11:29:49.244Z,24.80
2022-10-29T11:33:57.771Z,24.90
2022-10-29T11:38:05.104Z,25.00
2022-10-29T11:42:09.935Z,25.10
2022-10-29T11:46:16.234Z,25.30
2022-10-29T11:50:26.484Z,25.60
2022-10-29T11:54:37.801Z,25.90
2022-10-29T11:58:43.834Z,26.20
2022-10-29T12:02:53.778Z,26.30
2022-10-29T12:07:05.398Z,26.50
2022-10-29T12:11:12.345Z,26.60
2022-10-29T12:15:22.651Z,26.70
2022-10-29T12:19:36.006Z,26.90
2022-10-29T12:23:47.604Z,27.30
2022-10-29T12:27:58.035Z,27.80
2022-10-29T12:32:05.868Z,28.10
2022-10-29T12:36:11.124Z,28.10
2022-10-29T12:40:17.397Z,28.00
2022-10-29T12:44:25.531Z,27.70
2022-10-29T12:48:32.297Z,27.40
2022-10-29T12:52:37.769Z,27.00
2022-10-29T12:56:42.940Z,26.60
2022-10-29T13:00:51.172Z,26.30
2022-10-29T13:05:13.956Z,26.00
2022-10-29T13:09:18.543Z,25.70
2022-10-29T13:13:23.657Z,25.50
2022-10-29T13:17:29.637Z,25.40
2022-10-29T13:21:51.149Z,25.20
2022-10-29T13:25:55.526Z,25.10
2022-10-29T13:30:28.563Z,24.90
2022-10-29T13:34:50.050Z,24.80
2022-10-29T13:39:05.799Z,24.70
2022-10-29T13:43:16.406Z,24.60
2022-10-29T13:47:20.980Z,24.50
2022-10-29T13:51:28.593Z,24.40
2022-10-29T13:55:33.638Z,24.30
2022-10-29T13:59:41.071Z,24.20
2022-10-29T14:03:52.588Z,24.10
2022-10-29T14:07:58.435Z,24.00
2022-10-29T14:12:06.321Z,23.90
2022-10-29T14:16:10.563Z,23.80
2022-10-29T14:20:28.326Z,23.80
2022-10-29T14:24:38.138Z,23.70
2022-10-29T14:28:42.833Z,23.70
2022-10-29T14:32:46.765Z,23.70
2022-10-29T14:36:50.476Z,23.60
2022-10-29T14:40:53.358Z,23.60
2022-10-29T14:44:58.817Z,23.60
2022-10-29T14:49:10.486Z,23.60
2022-10-29T14:53:21.310Z,23.50
2022-10-29T14:57:26.052Z,23.50
2022-10-29T15:01:30.408Z,23.40
2022-10-29T15:05:34.952Z,23.30
2022-10-29T15:09:37.874Z,23.30
2022-10-29T15:13:40.719Z,23.30
2022-10-29T15:17:50.835Z,23.20
2022-10-29T15:21:53.863Z,23.10
2022-10-29T15:26:01.724Z,23.00
2022-10-29T15:30:05.529Z,23.00
2022-10-29T15:34:10.974Z,22.90
2022-10-29T15:38:36.465Z,22.80
2022-10-29T15:42:40.653Z,22.60
2022-10-29T15:46:49.201Z,22.40
2022-10-29T15:50:53.622Z,22.30
2022-10-29T15:54:56.473Z,22.10
2022-10-29T15:59:00.537Z,21.90
2022-10-29T16:03:10.337Z,21.80
2022-10-29T16:07:14.732Z,21.60
2022-10-29T16:11:20.132Z,21.50
2022-10-29T16:15:23.043Z,21.30
2022-10-29T16:19:25.937Z,21.20
2022-10-29T16:23:30.152Z,21.00
2022-10-29T16:27:33.006Z,20.90
2022-10-29T16:31:35.929Z,20.80
2022-10-29T16:35:38.780Z,20.70
2022-10-29T16:39:43.132Z,20.60
2022-10-29T16:43:46.045Z,20.50
2022-10-29T16:47:50.898Z,20.30
2022-10-29T16:51:53.744Z,20.20
2022-10-29T16:55:57.987Z,20.10
2022-10-29T17:00:00.841Z,20.00
2022-10-29T17:04:03.801Z,19.90
2022-10-29T17:08:07.328Z,19.80
2022-10-29T17:12:11.534Z,19.70
2022-10-29T17:16:16.317Z,19.50
2022-10-29T17:20:19.310Z,19.50
2022-10-29T17:24:22.152Z,19.40
2022-10-29T17:28:27.352Z,19.30
2022-10-29T17:32:32.658Z,19.20
2022-10-29T17:36:37.013Z,19.10
2022-10-29T17:40:39.888Z,19.10
2022-10-29T17:44:44.139Z,19.00
2022-10-29T17:48:47.105Z,18.90
2022-10-29T17:52:50.537Z,18.90
2022-10-29T17:56:53.999Z,18.80
2022-10-29T18:01:03.917Z,18.80
2022-10-29T18:05:07.655Z,18.70
2022-10-29T18:09:10.599Z,18.70
2022-10-29T18:13:13.477Z,18.60
2022-10-29T18:17:17.664Z,18.60
2022-10-29T18:21:21.651Z,18.50
2022-10-29T18:25:24.606Z,18.50
2022-10-29T18:29:27.573Z,18.40
2022-10-29T18:33:31.902Z,18.40
2022-10-29T18:37:34.788Z,18.40
2022-10-29T18:41:37.654Z,18.30
2022-10-29T18:45:40.535Z,18.20
2022-10-29T18:49:44.763Z,18.10
2022-10-29T18:53:47.674Z,18.10
2022-10-29T18:57:50.554Z,18.10
2022-10-29T19:01:53.506Z,18.00
2022-10-29T19:06:00.819Z,18.00
2022-10-29T19:10:03.675Z,17.90
2022-10-29T19:14:07.376Z,17.90
2022-10-29T19:18:10.239Z,17.90
2022-10-29T19:22:14.468Z,17.90
2022-10-29T19:26:18.296Z,17.80
2022-10-29T19:30:21.222Z,17.70
2022-10-29T19:34:24.169Z,17.70
2022-10-29T19:38:28.637Z,17.60
2022-10-29T19:42:31.515Z,17.60
2022-10-29T19:46:34.490Z,17.50
2022-10-29T19:50:37.482Z,17.50
2022-10-29T19:54:41.747Z,17.40
2022-10-29T19:58:44.865Z,17.40
2022-10-29T20:02:47.697Z,17.30
2022-10-29T20:06:50.581Z,17.20
2022-10-29T20:10:58.301Z,17.20
2022-10-29T20:15:01.279Z,17.10
2022-10-29T20:19:04.989Z,17.00
2022-10-29T20:23:07.864Z,16.90
2022-10-29T20:27:12.086Z,16.90
2022-10-29T20:31:23.582Z,16.80
2022-10-29T20:39:33.221Z,16.60
2022-10-29T20:43:37.959Z,16.60
2022-10-29T20:47:40.805Z,16.50
2022-10-29T20:51:43.653Z,16.50
2022-10-29T20:55:49.880Z,16.50
2022-10-29T20:59:54.156Z,16.50
2022-10-29T21:03:57.048Z,16.60
2022-10-29T21:08:00.130Z,16.60
2022-10-29T21:12:03.406Z,16.70
2022-10-29T21:16:08.539Z,16.80
2022-10-29T21:20:11.635Z,16.90
2022-10-29T21:24:14.515Z,17.00
2022-10-29T21:28:17.468Z,17.10
2022-10-29T21:32:21.680Z,17.20
2022-10-29T21:36:24.571Z,17.30
2022-10-29T21:40:27.475Z,17.40
2022-10-29T21:44:30.410Z,17.40
2022-10-29T21:48:34.754Z,17.40
2022-10-29T21:52:37.616Z,17.40
2022-10-29T21:56:40.525Z,17.40
2022-10-29T22:00:43.444Z,17.40
2022-10-29T22:04:47.749Z,17.30
2022-10-29T22:08:53.950Z,17.30
2022-10-29T22:13:07.000Z,17.30
2022-10-29T22:17:10.879Z,17.20
2022-10-29T22:21:16.128Z,17.20
2022-10-29T22:25:21.349Z,17.10
2022-10-29T22:29:24.297Z,17.00
2022-10-29T22:33:28.241Z,17.00
2022-10-29T22:37:32.425Z,17.00
2022-10-29T22:41:35.376Z,17.10
2022-10-29T22:45:38.237Z,17.10
2022-10-29T22:49:41.110Z,17.10
2022-10-29T22:53:47.517Z,17.10
2022-10-29T22:57:50.384Z,17.10
2022-10-29T23:01:53.394Z,17.10
2022-10-29T23:05:59.445Z,17.10
2022-10-29T23:10:03.694Z,17.10
2022-10-29T23:14:06.870Z,17.10
2022-10-29T23:18:12.606Z,17.20
2022-10-29T23:26:25.030Z,17.20
2022-10-29T23:30:27.984Z,17.20
2022-10-29T23:34:30.823Z,17.20
2022-10-29T23:38:34.274Z,17.20
2022-10-29T23:42:38.516Z,17.30
2022-10-29T23:46:41.376Z,17.30
2022-10-29T23:50:44.226Z,17.30
2022-10-29T23:54:47.221Z,17.30
2022-10-29T23:58:51.430Z,17.30
